createdAt,value
2018-07-19T00:00:47.493Z,101537.95
2018-07-19T00:01:52.897Z,101534.06
2018-07-19T00:02:58.538Z,101539.13
2018-07-19T00:04:03.984Z,101536.16
2018-07-19T00:05:09.389Z,101545.74
2018-07-19T00:06:14.833Z,101538.48
2018-07-19T00:07:20.455Z,101541.02
2018-07-19T00:08:26.289Z,101542.84
2018-07-19T00:09:31.734Z,101546.02
2018-07-19T00:10:37.244Z,101541.76
2018-07-19T00:11:42.665Z,101546.73
2018-07-19T00:12:48.192Z,101541.23
2018-07-19T00:13:54.069Z,101537.98
2018-07-19T00:14:59.504Z,101539.88
2018-07-19T00:16:04.960Z,101536.75
2018-07-19T00:17:10.427Z,101540.92
2018-07-19T00:18:15.812Z,101537.48
2018-07-19T00:19:21.631Z,101539.69
2018-07-19T00:20:27.192Z,101535.33
2018-07-19T00:21:33.048Z,101539.74
2018-07-19T00:22:38.494Z,101535.34
2018-07-19T00:23:43.980Z,101536.13
2018-07-19T00:24:49.492Z,101532.88
2018-07-19T00:25:55.964Z,101532.63
2018-07-19T00:27:01.372Z,101534.50
2018-07-19T00:28:06.788Z,101530.88
2018-07-19T00:29:12.248Z,101538.03
2018-07-19T00:30:17.681Z,101534.31
2018-07-19T00:31:23.497Z,101539.56
2018-07-19T00:32:28.917Z,101538.00
2018-07-19T00:33:34.353Z,101538.47
2018-07-19T00:34:39.988Z,101536.45
2018-07-19T00:35:45.413Z,101532.65
2018-07-19T00:36:50.868Z,101533.28
2018-07-19T00:37:56.319Z,101533.00
2018-07-19T00:39:02.060Z,101534.03
2018-07-19T00:40:07.480Z,101532.28
2018-07-19T00:41:13.408Z,101535.39
2018-07-19T00:42:18.901Z,101530.78
2018-07-19T00:43:24.367Z,101537.67
2018-07-19T00:44:30.596Z,101531.24
2018-07-19T00:45:36.128Z,101533.31
2018-07-19T00:46:41.548Z,101534.55
2018-07-19T00:47:46.941Z,101528.97
2018-07-19T00:48:52.435Z,101534.09
2018-07-19T00:49:57.949Z,101535.02
2018-07-19T00:51:03.400Z,101533.26
2018-07-19T00:52:08.845Z,101531.96
2018-07-19T00:53:14.305Z,101533.66
2018-07-19T00:54:19.825Z,101534.87
2018-07-19T00:55:25.229Z,101533.14
2018-07-19T00:56:30.677Z,101533.72
2018-07-19T00:57:36.105Z,101535.53
2018-07-19T00:58:41.529Z,101529.69
2018-07-19T00:59:47.005Z,101533.11
2018-07-19T01:00:53.441Z,101533.23
2018-07-19T01:01:58.856Z,101536.54
2018-07-19T01:03:04.396Z,101535.93
2018-07-19T01:04:09.865Z,101534.69
2018-07-19T01:05:15.269Z,101534.69
2018-07-19T01:06:20.709Z,101538.11
2018-07-19T01:07:26.202Z,101536.45
2018-07-19T01:08:31.633Z,101540.48
2018-07-19T01:09:37.162Z,101538.92
2018-07-19T01:10:42.569Z,101538.72
2018-07-19T01:11:48.008Z,101538.27
2018-07-19T01:12:53.509Z,101539.19
2018-07-19T01:13:58.680Z,101543.91
2018-07-19T01:15:04.760Z,101540.48
2018-07-19T01:16:10.191Z,101540.43
2018-07-19T01:17:15.653Z,101538.41
2018-07-19T01:18:21.060Z,101537.06
2018-07-19T01:19:26.553Z,101541.89
2018-07-19T01:20:32.473Z,101537.74
2018-07-19T01:21:37.952Z,101538.26
2018-07-19T01:22:43.426Z,101532.67
2018-07-19T01:23:48.848Z,101538.26
2018-07-19T01:24:54.274Z,101534.48
2018-07-19T01:25:59.728Z,101536.86
2018-07-19T01:27:05.266Z,101535.57
2018-07-19T01:28:10.817Z,101528.63
2018-07-19T01:29:16.226Z,101526.66
2018-07-19T01:30:21.662Z,101531.21
2018-07-19T01:31:27.105Z,101532.94
2018-07-19T01:32:32.535Z,101526.14
2018-07-19T01:33:37.912Z,101523.20
2018-07-19T01:34:43.385Z,101524.58
2018-07-19T01:35:49.252Z,101517.95
2018-07-19T01:36:54.641Z,101521.02
2018-07-19T01:38:00.016Z,101521.50
2018-07-19T01:39:08.264Z,101518.13
2018-07-19T01:40:13.781Z,101521.34
2018-07-19T01:41:42.154Z,101512.93
2018-07-19T01:42:47.580Z,101515.73
2018-07-19T01:43:53.004Z,101515.97
2018-07-19T01:44:58.565Z,101518.10
2018-07-19T01:46:03.989Z,101511.68
2018-07-19T01:47:09.409Z,101516.59
2018-07-19T01:48:14.928Z,101508.50
2018-07-19T01:49:20.380Z,101513.38
2018-07-19T01:50:25.889Z,101510.78
2018-07-19T01:51:31.340Z,101511.75
2018-07-19T01:52:36.765Z,101508.25
2018-07-19T01:53:42.189Z,101511.02
2018-07-19T01:54:47.654Z,101508.76
2018-07-19T01:55:53.119Z,101513.77
2018-07-19T01:56:58.528Z,101504.11
2018-07-19T01:58:03.925Z,101503.59
2018-07-19T01:59:09.345Z,101504.76
2018-07-19T02:00:14.927Z,101507.48
2018-07-19T02:01:20.308Z,101509.15
2018-07-19T02:02:26.112Z,101507.86
2018-07-19T02:03:31.550Z,101510.06
2018-07-19T02:04:37.017Z,101508.04
2018-07-19T02:05:42.405Z,101508.60
2018-07-19T02:06:47.855Z,101514.61
2018-07-19T02:07:53.287Z,101510.17
2018-07-19T02:08:58.677Z,101506.44
2018-07-19T02:10:04.266Z,101510.27
2018-07-19T02:11:09.705Z,101506.90
2018-07-19T02:12:15.211Z,101506.95
2018-07-19T02:13:20.645Z,101503.98
2018-07-19T02:14:26.245Z,101509.72
2018-07-19T02:15:31.733Z,101510.61
2018-07-19T02:16:37.163Z,101504.03
2018-07-19T02:17:42.796Z,101509.77
2018-07-19T02:18:48.192Z,101507.13
2018-07-19T02:19:53.613Z,101511.39
2018-07-19T02:20:59.116Z,101504.09
2018-07-19T02:22:04.664Z,101504.59
2018-07-19T02:23:10.097Z,101503.86
2018-07-19T02:24:15.505Z,101503.40
2018-07-19T02:25:20.932Z,101501.73
2018-07-19T02:26:26.360Z,101505.66
2018-07-19T02:27:31.761Z,101500.95
2018-07-19T02:28:37.349Z,101502.01
2018-07-19T02:29:42.765Z,101503.86
2018-07-19T02:30:48.257Z,101504.47
2018-07-19T02:31:53.718Z,101503.63
2018-07-19T02:32:59.215Z,101508.25
2018-07-19T02:34:05.269Z,101505.77
2018-07-19T02:35:10.757Z,101506.55
2018-07-19T02:36:16.400Z,101501.09
2018-07-19T02:37:21.849Z,101509.88
2018-07-19T02:38:27.292Z,101508.39
2018-07-19T02:39:32.731Z,101505.71
2018-07-19T02:40:38.224Z,101503.86
2018-07-19T02:41:43.956Z,101499.15
2018-07-19T02:42:49.473Z,101506.22
2018-07-19T02:43:54.954Z,101511.34
2018-07-19T02:45:00.324Z,101510.66
2018-07-19T02:46:05.902Z,101504.56
2018-07-19T02:47:11.625Z,101509.69
2018-07-19T02:48:16.907Z,101513.11
2018-07-19T02:49:22.281Z,101507.43
2018-07-19T02:50:27.777Z,101508.67
2018-07-19T02:51:33.260Z,101503.91
2018-07-19T02:52:38.657Z,101511.16
2018-07-19T02:53:44.067Z,101504.19
2018-07-19T02:54:49.580Z,101503.45
2018-07-19T02:55:55.013Z,101513.75
2018-07-19T02:57:00.448Z,101513.02
2018-07-19T02:58:05.853Z,101510.48
2018-07-19T02:59:11.297Z,101510.02
2018-07-19T03:00:16.744Z,101513.02
2018-07-19T03:01:22.180Z,101515.09
2018-07-19T03:02:27.602Z,101510.70
2018-07-19T03:03:33.228Z,101509.41
2018-07-19T03:04:38.762Z,101504.47
2018-07-19T03:05:44.153Z,101508.45
2018-07-19T03:06:49.612Z,101505.02
2018-07-19T03:07:55.119Z,101510.30
2018-07-19T03:09:00.600Z,101505.94
2018-07-19T03:10:06.217Z,101506.88
2018-07-19T03:11:11.652Z,101510.63
2018-07-19T03:12:17.042Z,101503.83
2018-07-19T03:13:22.689Z,101506.00
2018-07-19T03:14:28.274Z,101507.66
2018-07-19T03:15:33.750Z,101512.66
2018-07-19T03:16:39.236Z,101513.20
2018-07-19T03:17:44.712Z,101512.92
2018-07-19T03:18:50.197Z,101516.80
2018-07-19T03:19:55.758Z,101515.19
2018-07-19T03:21:01.322Z,101513.50
2018-07-19T03:22:07.140Z,101516.52
2018-07-19T03:23:12.608Z,101512.83
2018-07-19T03:24:18.021Z,101516.39
2018-07-19T03:25:23.552Z,101514.91
2018-07-19T03:26:28.982Z,101518.14
2018-07-19T03:27:34.447Z,101513.80
2018-07-19T03:28:39.988Z,101515.83
2018-07-19T03:29:45.408Z,101514.53
2018-07-19T03:30:51.372Z,101516.92
2018-07-19T03:31:56.792Z,101517.30
2018-07-19T03:33:02.217Z,101527.55
2018-07-19T03:34:07.709Z,101523.94
2018-07-19T03:35:13.152Z,101531.45
2018-07-19T03:36:18.801Z,101522.31
2018-07-19T03:37:24.285Z,101524.84
2018-07-19T03:38:29.745Z,101525.26
2018-07-19T03:39:35.214Z,101519.11
2018-07-19T03:40:40.656Z,101518.11
2018-07-19T03:41:46.742Z,101524.06
2018-07-19T03:42:52.229Z,101518.89
2018-07-19T03:43:57.678Z,101514.07
2018-07-19T03:45:03.156Z,101519.06
2018-07-19T03:46:08.992Z,101519.84
2018-07-19T03:47:14.761Z,101520.06
2018-07-19T03:48:20.211Z,101519.23
2018-07-19T03:49:25.683Z,101517.78
2018-07-19T03:50:31.253Z,101523.60
2018-07-19T03:51:36.665Z,101528.63
2018-07-19T03:52:42.200Z,101519.83
2018-07-19T03:53:47.364Z,101518.75
2018-07-19T03:54:52.756Z,101518.96
2018-07-19T03:55:58.177Z,101515.00
2018-07-19T03:57:03.637Z,101514.12
2018-07-19T03:58:09.108Z,101517.48
2018-07-19T03:59:14.601Z,101514.27
2018-07-19T04:00:20.133Z,101507.02
2018-07-19T04:01:25.548Z,101509.04
2018-07-19T04:02:31.043Z,101514.22
2018-07-19T04:03:36.500Z,101519.20
2018-07-19T04:04:42.001Z,101518.17
2018-07-19T04:05:47.392Z,101512.36
2018-07-19T04:06:52.836Z,101512.30
2018-07-19T04:07:58.255Z,101516.66
2018-07-19T04:09:04.080Z,101520.13
2018-07-19T04:10:09.690Z,101522.92
2018-07-19T04:11:15.220Z,101519.55
2018-07-19T04:12:20.636Z,101519.04
2018-07-19T04:13:26.066Z,101518.06
2018-07-19T04:14:31.524Z,101517.17
2018-07-19T04:15:37.216Z,101513.09
2018-07-19T04:16:42.737Z,101516.97
2018-07-19T04:18:03.391Z,101516.25
2018-07-19T04:19:08.837Z,101525.83
2018-07-19T04:20:14.714Z,101517.17
2018-07-19T04:21:20.140Z,101519.55
2018-07-19T04:22:25.701Z,101521.28
2018-07-19T04:23:31.129Z,101523.30
2018-07-19T04:24:36.580Z,101515.53
2018-07-19T04:25:42.035Z,101523.35
2018-07-19T04:26:47.485Z,101522.52
2018-07-19T04:27:53.993Z,101527.18
2018-07-19T04:28:59.452Z,101519.93
2018-07-19T04:30:05.616Z,101518.58
2018-07-19T04:31:11.055Z,101517.02
2018-07-19T04:32:16.569Z,101512.99
2018-07-19T04:33:22.003Z,101515.98
2018-07-19T04:34:27.464Z,101520.33
2018-07-19T04:35:32.943Z,101513.70
2018-07-19T04:36:38.492Z,101521.47
2018-07-19T04:37:44.033Z,101519.05
2018-07-19T04:38:49.545Z,101523.20
2018-07-19T04:39:54.981Z,101517.23
2018-07-19T04:41:00.445Z,101520.40
2018-07-19T04:42:06.017Z,101520.77
2018-07-19T04:43:11.522Z,101527.39
2018-07-19T04:44:16.994Z,101521.42
2018-07-19T04:45:22.476Z,101529.11
2018-07-19T04:46:27.977Z,101531.70
2018-07-19T04:47:33.375Z,101532.52
2018-07-19T04:48:38.828Z,101533.34
2018-07-19T04:49:44.397Z,101529.52
2018-07-19T04:50:49.897Z,101534.38
2018-07-19T04:51:55.302Z,101531.89
2018-07-19T04:53:00.718Z,101539.30
2018-07-19T04:54:07.251Z,101538.36
2018-07-19T04:55:12.689Z,101534.42
2018-07-19T04:56:18.089Z,101532.34
2018-07-19T04:57:23.697Z,101538.98
2018-07-19T04:58:29.172Z,101540.60
2018-07-19T04:59:34.628Z,101539.31
2018-07-19T05:00:40.110Z,101539.31
2018-07-19T05:01:45.643Z,101535.27
2018-07-19T05:02:51.044Z,101539.88
2018-07-19T05:03:56.537Z,101534.42
2018-07-19T05:05:01.986Z,101538.47
2018-07-19T05:06:07.453Z,101542.51
2018-07-19T05:07:12.888Z,101538.27
2018-07-19T05:08:18.423Z,101538.94
2018-07-19T05:09:23.923Z,101543.95
2018-07-19T05:10:29.372Z,101540.33
2018-07-19T05:11:34.796Z,101542.87
2018-07-19T05:12:40.656Z,101543.59
2018-07-19T05:13:46.153Z,101545.15
2018-07-19T05:14:51.600Z,101541.43
2018-07-19T05:15:57.068Z,101542.67
2018-07-19T05:17:02.461Z,101541.95
2018-07-19T05:18:08.288Z,101539.91
2018-07-19T05:19:13.786Z,101541.72
2018-07-19T05:20:19.290Z,101542.72
2018-07-19T05:21:24.797Z,101534.69
2018-07-19T05:22:30.251Z,101544.91
2018-07-19T05:23:35.788Z,101545.30
2018-07-19T05:24:41.282Z,101542.51
2018-07-19T05:25:46.902Z,101539.70
2018-07-19T05:26:52.333Z,101541.22
2018-07-19T05:27:57.765Z,101538.68
2018-07-19T05:29:03.209Z,101536.60
2018-07-19T05:30:08.697Z,101540.44
2018-07-19T05:31:14.138Z,101537.17
2018-07-19T05:32:19.560Z,101539.36
2018-07-19T05:33:25.345Z,101536.66
2018-07-19T05:34:30.897Z,101538.79
2018-07-19T05:35:36.358Z,101549.04
2018-07-19T05:36:41.835Z,101544.12
2018-07-19T05:37:47.305Z,101547.70
2018-07-19T05:38:52.745Z,101550.81
2018-07-19T05:39:58.154Z,101546.03
2018-07-19T05:41:03.654Z,101547.48
2018-07-19T05:42:09.508Z,101541.00
2018-07-19T05:43:14.986Z,101540.33
2018-07-19T05:44:20.552Z,101545.05
2018-07-19T05:45:25.995Z,101539.81
2018-07-19T05:46:31.466Z,101541.38
2018-07-19T05:47:37.154Z,101537.78
2018-07-19T05:48:42.598Z,101535.41
2018-07-19T05:49:48.032Z,101534.52
2018-07-19T05:50:53.562Z,101533.95
2018-07-19T05:51:59.090Z,101535.19
2018-07-19T05:53:04.908Z,101535.77
2018-07-19T05:54:10.445Z,101534.20
2018-07-19T05:55:15.892Z,101531.67
2018-07-19T05:56:21.369Z,101534.89
2018-07-19T05:57:26.776Z,101536.02
2018-07-19T05:58:32.599Z,101533.08
2018-07-19T05:59:38.049Z,101535.67
2018-07-19T06:00:43.561Z,101531.93
2018-07-19T06:01:48.965Z,101536.95
2018-07-19T06:02:54.373Z,101531.70
2018-07-19T06:03:59.841Z,101532.85
2018-07-19T06:05:05.207Z,101531.55
2018-07-19T06:06:10.661Z,101532.80
2018-07-19T06:07:16.054Z,101535.80
2018-07-19T06:08:21.520Z,101530.80
2018-07-19T06:09:26.936Z,101537.48
2018-07-19T06:10:32.405Z,101528.23
2018-07-19T06:11:37.828Z,101533.62
2018-07-19T06:12:43.300Z,101528.80
2018-07-19T06:13:48.753Z,101530.62
2018-07-19T06:14:54.239Z,101529.67
2018-07-19T06:15:59.746Z,101529.21
2018-07-19T06:17:05.172Z,101531.80
2018-07-19T06:18:10.612Z,101528.39
2018-07-19T06:19:16.117Z,101529.75
2018-07-19T06:20:21.564Z,101531.33
2018-07-19T06:21:27.009Z,101530.80
2018-07-19T06:22:32.517Z,101526.72
2018-07-19T06:23:37.978Z,101530.50
2018-07-19T06:24:43.597Z,101535.11
2018-07-19T06:25:49.008Z,101535.34
2018-07-19T06:26:54.467Z,101540.05
2018-07-19T06:28:00.060Z,101539.00
2018-07-19T06:29:05.658Z,101533.75
2018-07-19T06:30:11.684Z,101537.12
2018-07-19T06:31:17.137Z,101536.52
2018-07-19T06:32:22.673Z,101538.31
2018-07-19T06:33:28.176Z,101541.25
2018-07-19T06:34:33.652Z,101542.48
2018-07-19T06:35:42.465Z,101538.79
2018-07-19T06:36:47.959Z,101543.18
2018-07-19T06:37:53.420Z,101539.81
2018-07-19T06:38:58.817Z,101537.24
2018-07-19T06:40:05.062Z,101537.00
2018-07-19T06:41:10.674Z,101541.97
2018-07-19T06:42:16.049Z,101545.48
2018-07-19T06:43:21.557Z,101535.70
2018-07-19T06:44:27.106Z,101546.98
2018-07-19T06:45:32.620Z,101541.30
2018-07-19T06:46:38.053Z,101543.50
2018-07-19T06:47:43.523Z,101538.55
2018-07-19T06:48:49.017Z,101539.91
2018-07-19T06:49:54.542Z,101537.29
2018-07-19T06:51:00.054Z,101539.06
2018-07-19T06:52:05.609Z,101536.03
2018-07-19T06:53:11.096Z,101537.76
2018-07-19T06:54:16.603Z,101532.26
2018-07-19T06:55:22.142Z,101529.68
2018-07-19T06:56:27.537Z,101532.52
2018-07-19T06:57:33.059Z,101532.08
2018-07-19T06:58:38.616Z,101531.47
2018-07-19T06:59:44.053Z,101535.11
2018-07-19T07:00:49.528Z,101533.53
2018-07-19T07:01:54.954Z,101538.36
2018-07-19T07:03:00.436Z,101538.91
2018-07-19T07:04:05.952Z,101542.39
2018-07-19T07:05:11.415Z,101542.22
2018-07-19T07:06:16.902Z,101549.83
2018-07-19T07:07:22.476Z,101548.21
2018-07-19T07:08:28.030Z,101553.64
2018-07-19T07:09:33.208Z,101550.45
2018-07-19T07:10:38.601Z,101553.73
2018-07-19T07:11:44.028Z,101554.72
2018-07-19T07:12:49.528Z,101556.09
2018-07-19T07:13:55.046Z,101552.81
2018-07-19T07:15:00.598Z,101547.14
2018-07-19T07:16:06.359Z,101549.89
2018-07-19T07:17:11.870Z,101547.75
2018-07-19T07:18:17.305Z,101548.11
2018-07-19T07:19:22.770Z,101547.34
2018-07-19T07:20:28.189Z,101548.50
2018-07-19T07:21:33.698Z,101544.53
2018-07-19T07:22:39.152Z,101543.87
2018-07-19T07:23:44.559Z,101545.78
2018-07-19T07:24:50.405Z,101545.12
2018-07-19T07:25:56.296Z,101545.12
2018-07-19T07:27:01.761Z,101547.50
2018-07-19T07:28:07.257Z,101550.52
2018-07-19T07:29:12.726Z,101543.16
2018-07-19T07:30:18.326Z,101545.42
2018-07-19T07:31:23.765Z,101546.94
2018-07-19T07:32:29.188Z,101544.88
2018-07-19T07:33:34.586Z,101551.63
2018-07-19T07:34:40.066Z,101555.43
2018-07-19T07:35:46.269Z,101551.44
2018-07-19T07:36:51.749Z,101556.08
2018-07-19T07:37:57.180Z,101556.13
2018-07-19T07:39:02.758Z,101554.20
2018-07-19T07:40:08.440Z,101554.72
2018-07-19T07:41:13.904Z,101551.95
2018-07-19T07:42:19.340Z,101557.65
2018-07-19T07:43:24.850Z,101552.51
2018-07-19T07:44:30.292Z,101550.88
2018-07-19T07:45:35.974Z,101550.33
2018-07-19T07:46:41.388Z,101553.89
2018-07-19T07:47:46.908Z,101555.42
2018-07-19T07:48:52.368Z,101552.43
2018-07-19T07:49:57.864Z,101555.07
2018-07-19T07:51:03.337Z,101556.95
2018-07-19T07:52:09.660Z,101555.02
2018-07-19T07:53:15.266Z,101560.88
2018-07-19T07:54:20.741Z,101557.41
2018-07-19T07:55:26.167Z,101560.48
2018-07-19T07:56:31.693Z,101557.14
2018-07-19T07:57:37.104Z,101562.02
2018-07-19T07:58:42.628Z,101569.31
2018-07-19T07:59:48.476Z,101567.38
2018-07-19T08:00:54.002Z,101564.11
2018-07-19T08:01:59.416Z,101569.05
2018-07-19T08:03:04.956Z,101567.95
2018-07-19T08:04:10.521Z,101564.28
2018-07-19T08:05:15.997Z,101566.06
2018-07-19T08:06:21.544Z,101565.98
2018-07-19T08:07:26.960Z,101568.02
2018-07-19T08:08:32.417Z,101565.02
2018-07-19T08:09:38.120Z,101565.77
2018-07-19T08:10:43.580Z,101567.55
2018-07-19T08:11:49.065Z,101568.69
2018-07-19T08:12:54.716Z,101569.05
2018-07-19T08:14:00.194Z,101574.19
2018-07-19T08:15:05.787Z,101570.93
2018-07-19T08:16:11.314Z,101571.61
2018-07-19T08:17:16.779Z,101570.56
2018-07-19T08:18:22.225Z,101565.80
2018-07-19T08:19:27.610Z,101568.61
2018-07-19T08:20:33.006Z,101576.09
2018-07-19T08:21:38.487Z,101569.83
2018-07-19T08:22:43.916Z,101569.17
2018-07-19T08:23:49.353Z,101572.34
2018-07-19T08:24:55.698Z,101579.53
2018-07-19T08:26:01.218Z,101574.03
2018-07-19T08:27:06.677Z,101578.30
2018-07-19T08:28:12.170Z,101571.41
2018-07-19T08:29:17.837Z,101563.89
2018-07-19T08:30:23.301Z,101568.38
2018-07-19T08:31:28.749Z,101569.79
2018-07-19T08:32:34.219Z,101572.33
2018-07-19T08:33:39.705Z,101568.59
2018-07-19T08:34:45.139Z,101565.05
2018-07-19T08:35:50.947Z,101562.35
2018-07-19T08:36:55.975Z,101563.91
2018-07-19T08:38:01.341Z,101567.38
2018-07-19T08:39:11.860Z,101562.06
2018-07-19T08:40:18.313Z,101562.14
2018-07-19T08:41:23.704Z,101564.02
2018-07-19T08:42:29.163Z,101562.70
2018-07-19T08:43:34.654Z,101565.52
2018-07-19T08:44:40.481Z,101561.02
2018-07-19T08:45:45.973Z,101565.20
2018-07-19T08:46:51.413Z,101563.05
2018-07-19T08:47:56.824Z,101560.13
2018-07-19T08:49:02.539Z,101558.04
2018-07-19T08:50:08.632Z,101555.73
2018-07-19T08:51:14.128Z,101561.50
2018-07-19T08:52:19.539Z,101555.53
2018-07-19T08:53:24.984Z,101562.41
2018-07-19T08:54:30.452Z,101553.13
2018-07-19T08:55:35.975Z,101562.87
2018-07-19T08:56:41.731Z,101555.34
2018-07-19T08:57:47.481Z,101557.74
2018-07-19T08:58:52.933Z,101559.19
2018-07-19T08:59:58.381Z,101552.86
2018-07-19T09:01:03.890Z,101554.29
2018-07-19T09:02:09.320Z,101553.38
2018-07-19T09:03:15.124Z,101552.95
2018-07-19T09:04:21.308Z,101556.78
2018-07-19T09:05:26.883Z,101554.49
2018-07-19T09:06:32.362Z,101557.01
2018-07-19T09:07:37.832Z,101553.17
2018-07-19T09:08:43.351Z,101559.30
2018-07-19T09:09:48.776Z,101550.52
2018-07-19T09:10:54.261Z,101548.44
2018-07-19T09:11:59.744Z,101549.65
2018-07-19T09:13:05.227Z,101547.89
2018-07-19T09:14:10.729Z,101548.77
2018-07-19T09:15:16.925Z,101548.89
2018-07-19T09:16:22.368Z,101553.18
2018-07-19T09:17:27.917Z,101547.08
2018-07-19T09:18:33.368Z,101554.68
2018-07-19T09:19:38.924Z,101546.13
2018-07-19T09:20:44.400Z,101550.20
2018-07-19T09:21:49.986Z,101547.94
2018-07-19T09:22:55.449Z,101551.36
2018-07-19T09:24:00.900Z,101547.36
2018-07-19T09:25:06.786Z,101550.77
2018-07-19T09:26:12.781Z,101546.06
2018-07-19T09:27:18.377Z,101548.87
2018-07-19T09:28:23.988Z,101551.14
2018-07-19T09:29:29.452Z,101542.89
2018-07-19T09:30:35.091Z,101544.36
2018-07-19T09:31:40.609Z,101541.79
2018-07-19T09:32:46.106Z,101537.41
2018-07-19T09:33:51.731Z,101545.09
2018-07-19T09:34:57.240Z,101543.33
2018-07-19T09:36:02.841Z,101545.95
2018-07-19T09:37:08.309Z,101547.74
2018-07-19T09:38:14.003Z,101543.27
2018-07-19T09:39:19.553Z,101541.95
2018-07-19T09:40:24.988Z,101545.11
2018-07-19T09:41:30.976Z,101541.45
2018-07-19T09:42:36.537Z,101539.88
2018-07-19T09:43:42.077Z,101537.91
2018-07-19T09:44:47.609Z,101539.66
2018-07-19T09:45:53.342Z,101542.25
2018-07-19T09:46:58.810Z,101533.60
2018-07-19T09:48:03.956Z,101535.56
2018-07-19T09:49:09.326Z,101538.27
2018-07-19T09:50:14.808Z,101537.81
2018-07-19T09:51:20.352Z,101538.91
2018-07-19T09:52:25.814Z,101534.73
2018-07-19T09:53:31.213Z,101537.06
2018-07-19T09:54:54.701Z,101533.03
2018-07-19T09:56:00.138Z,101530.20
2018-07-19T09:57:05.645Z,101535.80
2018-07-19T09:58:11.288Z,101530.47
2018-07-19T09:59:18.357Z,101529.34
2018-07-19T10:00:29.793Z,101528.67
2018-07-19T10:01:35.788Z,101524.86
2018-07-19T10:02:41.362Z,101522.39
2018-07-19T10:03:47.748Z,101521.59
2018-07-19T10:04:53.187Z,101526.06
2018-07-19T10:05:58.634Z,101523.21
2018-07-19T10:07:04.136Z,101520.36
2018-07-19T10:08:09.580Z,101527.75
2018-07-19T10:09:15.136Z,101521.97
2018-07-19T10:10:20.702Z,101518.02
2018-07-19T10:11:26.089Z,101525.03
2018-07-19T10:12:31.569Z,101511.17
2018-07-19T10:13:37.065Z,101515.91
2018-07-19T10:14:42.460Z,101516.98
2018-07-19T10:15:47.905Z,101519.88
2018-07-19T10:16:53.360Z,101524.84
2018-07-19T10:18:00.118Z,101519.94
2018-07-19T10:19:05.996Z,101518.88
2018-07-19T10:20:11.698Z,101522.98
2018-07-19T10:21:17.216Z,101525.55
2018-07-19T10:22:22.990Z,101524.73
2018-07-19T10:23:29.013Z,101523.63
2018-07-19T10:24:34.801Z,101522.55
2018-07-19T10:25:40.453Z,101526.53
2018-07-19T10:26:45.977Z,101524.73
2018-07-19T10:27:51.414Z,101521.62
2018-07-19T10:28:56.818Z,101523.31
2018-07-19T10:30:02.398Z,101521.50
2018-07-19T10:31:08.031Z,101519.47
2018-07-19T10:32:13.663Z,101521.07
2018-07-19T10:33:19.512Z,101520.79
2018-07-19T10:34:25.380Z,101523.07
2018-07-19T10:35:30.770Z,101520.06
2018-07-19T10:36:36.278Z,101523.70
2018-07-19T10:37:41.876Z,101519.62
2018-07-19T10:38:52.764Z,101522.63
2018-07-19T10:40:01.637Z,101517.81
2018-07-19T10:41:07.434Z,101524.03
2018-07-19T10:42:13.877Z,101518.05
2018-07-19T10:43:19.857Z,101516.84
2018-07-19T10:44:25.364Z,101520.20
2018-07-19T10:45:30.832Z,101513.03
2018-07-19T10:46:36.240Z,101517.94
2018-07-19T10:47:43.761Z,101512.55
2018-07-19T10:48:49.211Z,101514.93
2018-07-19T10:49:55.131Z,101516.25
2018-07-19T10:51:00.673Z,101512.42
2018-07-19T10:52:06.337Z,101511.81
2018-07-19T10:53:12.333Z,101505.01
2018-07-19T10:54:17.765Z,101505.34
2018-07-19T10:55:23.185Z,101501.25
2018-07-19T10:56:29.091Z,101501.03
2018-07-19T10:57:34.543Z,101500.69
2018-07-19T10:58:40.038Z,101503.21
2018-07-19T10:59:45.845Z,101501.91
2018-07-19T11:00:51.280Z,101498.67
2018-07-19T11:01:56.744Z,101502.27
2018-07-19T11:03:02.258Z,101496.27
2018-07-19T11:04:07.713Z,101494.50
2018-07-19T11:05:13.252Z,101499.75
2018-07-19T11:06:18.713Z,101495.09
2018-07-19T11:07:24.336Z,101491.52
2018-07-19T11:08:29.751Z,101488.29
2018-07-19T11:09:35.258Z,101493.43
2018-07-19T11:10:40.745Z,101493.08
2018-07-19T11:11:46.255Z,101494.03
2018-07-19T11:12:51.725Z,101488.38
2018-07-19T11:13:57.193Z,101482.61
2018-07-19T11:15:02.561Z,101483.18
2018-07-19T11:16:08.269Z,101484.98
2018-07-19T11:17:13.761Z,101480.63
2018-07-19T11:18:19.297Z,101483.27
2018-07-19T11:19:25.133Z,101483.56
2018-07-19T11:20:30.508Z,101476.61
2018-07-19T11:21:37.172Z,101478.66
2018-07-19T11:23:58.765Z,101476.31
2018-07-19T11:25:05.370Z,101476.31
2018-07-19T11:26:12.300Z,101477.05
2018-07-19T11:27:17.849Z,101475.78
2018-07-19T11:28:23.544Z,101482.54
2018-07-19T11:29:28.985Z,101474.30
2018-07-19T11:30:34.486Z,101476.89
2018-07-19T11:31:40.237Z,101471.75
2018-07-19T11:32:45.677Z,101468.37
2018-07-19T11:33:51.297Z,101470.05
2018-07-19T11:34:56.393Z,101468.13
2018-07-19T11:36:01.923Z,101465.03
2018-07-19T11:37:07.469Z,101459.58
2018-07-19T11:38:13.334Z,101454.10
2018-07-19T11:39:19.067Z,101454.30
2018-07-19T11:40:25.130Z,101453.55
2018-07-19T11:41:30.916Z,101451.77
2018-07-19T11:42:36.380Z,101447.81
2018-07-19T11:43:41.891Z,101447.81
2018-07-19T11:44:47.459Z,101452.35
2018-07-19T11:45:53.001Z,101447.91
2018-07-19T11:46:58.556Z,101445.70
2018-07-19T11:48:04.346Z,101448.52
2018-07-19T11:49:09.801Z,101446.25
2018-07-19T11:50:15.339Z,101448.19
2018-07-19T11:51:20.539Z,101444.72
2018-07-19T11:52:25.960Z,101439.58
2018-07-19T11:53:31.538Z,101443.69
2018-07-19T11:54:36.936Z,101438.70
2018-07-19T11:55:42.447Z,101439.77
2018-07-19T11:56:47.977Z,101439.33
2018-07-19T11:57:53.729Z,101429.41
2018-07-19T11:58:59.225Z,101431.58
2018-07-19T12:00:05.303Z,101427.44
2018-07-19T12:01:10.762Z,101423.95
2018-07-19T12:02:16.264Z,101427.18
2018-07-19T12:03:21.717Z,101429.40
2018-07-19T12:04:27.760Z,101428.38
2018-07-19T12:05:33.257Z,101432.53
2018-07-19T12:06:38.650Z,101424.27
2018-07-19T12:07:44.151Z,101429.35
2018-07-19T12:08:49.573Z,101428.18
2018-07-19T12:09:55.075Z,101429.87
2018-07-19T12:11:00.612Z,101433.20
2018-07-19T12:12:06.396Z,101430.85
2018-07-19T12:13:11.896Z,101427.02
2018-07-19T12:14:17.461Z,101426.05
2018-07-19T12:15:23.052Z,101419.28
2018-07-19T12:16:28.824Z,101421.88
2018-07-19T12:17:34.289Z,101419.78
2018-07-19T12:18:39.688Z,101421.97
2018-07-19T12:19:45.094Z,101414.19
2018-07-19T12:20:50.657Z,101419.78
2018-07-19T12:21:56.680Z,101418.59
2018-07-19T12:23:02.252Z,101415.29
2018-07-19T12:24:07.852Z,101416.64
2018-07-19T12:25:14.113Z,101410.39
2018-07-19T12:26:20.062Z,101413.23
2018-07-19T12:27:25.825Z,101411.38
2018-07-19T12:28:31.416Z,101411.02
2018-07-19T12:29:36.828Z,101410.40
2018-07-19T12:30:42.533Z,101410.52